East Setauket, New York
Current Conditions -  °F | °C
As of 8:56 PM on Thursday 20 Nov 2014 (Local Time) from KISP Reporting Station
Few Clouds Few Clouds  
Wind Chill: 29°   Ceiling: Unl
Heat Index: 38°   Visibility: 10mi
Dew Point: 11°   Wind: 15mph
Humidity: 33%   Direction: 280°W
Pressure: 29.92"   Gusts: 23mph
Location:  40.94°N, 73.11°W
Report Text: KISP 210156Z 28013G20KT 10SM FEW090 03/M12 A2992 RMK AO2 SLP133 T00331117
Loading
Personal Weather Stations






























Interactive Weather Map New forecast layout! Learn more

10-Day Weather Forecast

Advertisements
Track Severe Weather on mobile